KCKB/CKB METAR and TAF weather

Enter ICAO airport designator
Station Type Date Time Source
KCKB METAR 2019/09/21 04:53 UTC NOAA

KCKB 210453Z AUTO 00000KT 10SM CLR 18/16 A3023 RMK AO2 SLP223 T01830156 403060100


Station Type Date Time Source
KCKB Decoded METAR 2019/09/21 04:53 UTC NOAA

HARRISON/MARION REGIONAL, WV, United States (KCKB) 39-18N 080-13W 360M
Sep 21, 2019 - 12:53 AM EDT / 2019.09.21 0453 UTC
Wind: Calm:0
Visibility: 10 mile(s):0
Sky conditions: clear
Temperature: 64.9 F (18.3 C)
Dew Point: 60.1 F (15.6 C)
Relative Humidity: 84%
Pressure (altimeter): 30.23 in. Hg (1023 hPa)
ob: KCKB 210453Z AUTO 00000KT 10SM CLR 18/16 A3023 RMK AO2 SLP223 T01830156 403060100
cycle: 5

Station Type Date Time Source
KCKB TAF 2019/09/21 03:48 UTC NOAA

TAF
AMD KCKB 210245Z 2103/2124 00000KT P6SM FEW200
FM210500 00000KT P6SM FEW030
FM210900 00000KT 6SM BR SCT030
FM211300 00000KT P6SM VCSH BKN025
FM211800 24005KT P6SM SCT030 BKN050
FM212100 27005KT P6SM SCT050

Example: see airport list